Time;durP1;ratioP1;P1;durP2;ratioP2;P2;SDS_P1;SDS_P2;PMS_P1;PMS_P2;Temp;Humidity;BMP_temperature;BMP_pressure;BME280_temperature;BME280_humidity;BME280_pressure;Samples;Min_cycle;Max_cycle;Signal;HPM_P1;HPM_P2
2023/09/30 00:00:27;;;;;;;16.07;8.50;;;;;;;18.48;100.00;97103.34;4890743;28;102446;-72
2023/09/30 00:02:54;;;;;;;18.83;9.13;;;;;;;18.53;100.00;97089.06;4874812;28;105414;-72
2023/09/30 00:05:21;;;;;;;16.10;8.10;;;;;;;18.49;100.00;97102.28;4890070;28;105108;-73
2023/09/30 00:07:49;;;;;;;15.47;8.50;;;;;;;18.46;100.00;97093.94;4878011;28;102347;-74
2023/09/30 00:10:17;;;;;;;17.47;8.83;;;;;;;18.46;100.00;97097.44;4874149;28;105307;-73
2023/09/30 00:12:45;;;;;;;17.93;8.63;;;;;;;18.43;100.00;97105.31;4875719;28;101831;-73
2023/09/30 00:15:12;;;;;;;17.20;8.47;;;;;;;18.40;100.00;97112.06;4877835;28;104837;-73
2023/09/30 00:17:39;;;;;;;16.27;8.83;;;;;;;18.39;100.00;97113.16;4893161;28;103992;-73
2023/09/30 00:20:08;;;;;;;14.33;8.30;;;;;;;18.35;100.00;97108.59;4877483;28;101950;-74
2023/09/30 00:22:35;;;;;;;16.43;9.03;;;;;;;18.31;100.00;97112.91;4877645;28;105256;-74
2023/09/30 00:25:03;;;;;;;17.30;9.50;;;;;;;18.30;100.00;97116.66;4877124;28;106356;-73
2023/09/30 00:27:30;;;;;;;17.17;8.53;;;;;;;18.31;100.00;97118.31;4877840;28;102300;-74
2023/09/30 00:29:57;;;;;;;18.00;9.87;;;;;;;18.35;100.00;97119.34;4880518;28;104886;-74
2023/09/30 00:32:24;;;;;;;16.43;9.13;;;;;;;18.39;100.00;97110.44;4877573;28;102005;-73
2023/09/30 00:34:52;;;;;;;15.93;8.87;;;;;;;18.43;100.00;97111.47;4877511;28;105355;-73
2023/09/30 00:37:19;;;;;;;15.83;8.87;;;;;;;18.48;100.00;97124.91;4876917;28;104417;-73
2023/09/30 00:39:46;;;;;;;19.27;9.67;;;;;;;18.58;100.00;97119.44;4877459;28;101936;-73
2023/09/30 00:42:14;;;;;;;17.33;9.33;;;;;;;18.58;100.00;97124.03;4877526;28;105417;-73
2023/09/30 00:44:41;;;;;;;19.40;9.80;;;;;;;18.52;100.00;97131.34;4876853;28;105981;-73
2023/09/30 00:47:10;;;;;;;17.80;9.63;;;;;;;18.49;100.00;97131.91;4877578;28;101944;-73
2023/09/30 00:49:38;;;;;;;18.53;9.00;;;;;;;18.45;100.00;97135.44;4877489;28;105434;-73
2023/09/30 00:52:05;;;;;;;22.53;9.90;;;;;;;18.42;100.00;97136.03;4879584;28;101999;-73
2023/09/30 00:54:32;;;;;;;17.13;9.33;;;;;;;18.37;100.00;97142.22;4877529;28;105259;-73
2023/09/30 00:57:01;;;;;;;15.93;8.50;;;;;;;18.38;100.00;97146.56;4876671;28;105574;-73
2023/09/30 00:59:32;;;;;;;16.23;9.13;;;;;;;18.34;100.00;97139.28;4877180;28;102045;-73
2023/09/30 01:02:01;;;;;;;17.03;9.43;;;;;;;18.33;100.00;97145.78;4877253;28;104938;-73
2023/09/30 01:04:28;;;;;;;17.47;9.03;;;;;;;18.36;100.00;97137.16;4876583;28;105495;-73
2023/09/30 01:06:57;;;;;;;18.33;9.80;;;;;;;18.38;100.00;97134.97;4877019;28;102196;-73
2023/09/30 01:09:24;;;;;;;17.73;9.77;;;;;;;18.36;100.00;97137.16;4877023;28;105638;-73
2023/09/30 01:11:53;;;;;;;16.93;9.70;;;;;;;18.34;100.00;97139.28;4879829;28;104494;-73
2023/09/30 01:14:27;;;;;;;17.23;9.33;;;;;;;18.35;100.00;97127.44;4877184;28;105031;-73
2023/09/30 01:16:57;;;;;;;18.93;9.10;;;;;;;18.32;100.00;97125.31;4876347;28;104222;-73
2023/09/30 01:19:25;;;;;;;18.23;9.10;;;;;;;18.37;100.00;97117.19;4893100;28;102109;-73
2023/09/30 01:21:56;;;;;;;18.13;9.13;;;;;;;18.33;100.00;97121.53;4876895;28;105808;-73
2023/09/30 01:24:23;;;;;;;16.50;9.50;;;;;;;18.36;100.00;97121.00;4875767;28;105418;-73
2023/09/30 01:26:50;;;;;;;18.37;9.87;;;;;;;18.32;100.00;97119.94;4876859;28;102129;-73
2023/09/30 01:29:17;;;;;;;19.17;9.57;;;;;;;18.32;100.00;97119.94;4876849;28;105395;-73
2023/09/30 01:31:47;;;;;;;18.97;9.53;;;;;;;18.24;100.00;97113.22;4876134;28;105582;-73
2023/09/30 01:34:15;;;;;;;18.27;9.83;;;;;;;18.27;100.00;97117.25;4879936;28;101870;-73
2023/09/30 01:36:42;;;;;;;18.70;9.47;;;;;;;18.22;100.00;97120.78;4876161;28;105902;-73
2023/09/30 01:39:12;;;;;;;19.00;9.77;;;;;;;18.16;100.00;97115.72;4876751;28;102370;-73
2023/09/30 01:41:39;;;;;;;17.70;9.50;;;;;;;18.09;100.00;97117.94;4876582;28;105432;-73
2023/09/30 01:44:09;;;;;;;18.90;9.63;;;;;;;18.12;100.00;97122.72;4875997;28;105535;-73
2023/09/30 01:46:37;;;;;;;16.50;9.27;;;;;;;18.06;100.00;97126.56;4876585;28;102039;-73
2023/09/30 01:49:04;;;;;;;17.37;8.90;;;;;;;18.10;100.00;97127.59;4876401;28;105016;-73
2023/09/30 01:51:31;;;;;;;17.30;9.13;;;;;;;18.08;100.00;97130.56;4875902;28;105521;-76
2023/09/30 01:53:59;;;;;;;19.43;9.90;;;;;;;18.16;100.00;97121.88;4876547;28;101874;-74
2023/09/30 01:56:27;;;;;;;16.27;9.43;;;;;;;18.17;100.00;97126.22;4879172;28;105848;-74
2023/09/30 01:58:54;;;;;;;20.57;9.87;;;;;;;18.15;100.00;97111.41;4876462;28;102021;-74
2023/09/30 02:01:21;;;;;;;18.20;9.97;;;;;;;18.14;100.00;97112.50;4875989;28;105392;-74
2023/09/30 02:03:49;;;;;;;18.60;9.20;;;;;;;18.10;100.00;97112.25;4874783;28;105817;-73
2023/09/30 02:06:16;;;;;;;18.27;9.50;;;;;;;18.12;100.00;97110.09;4876177;28;101856;-73
2023/09/30 02:08:44;;;;;;;16.57;9.17;;;;;;;18.11;100.00;97108.50;4876349;28;105576;-74
2023/09/30 02:11:13;;;;;;;17.40;9.40;;;;;;;18.06;100.00;97113.09;4875437;28;105452;-74
2023/09/30 02:13:42;;;;;;;18.53;9.80;;;;;;;17.87;100.00;97120.22;4876240;28;101959;-74
2023/09/30 02:16:13;;;;;;;16.93;9.33;;;;;;;17.85;100.00;97114.28;4876254;28;105325;-74
2023/09/30 02:18:41;;;;;;;19.20;10.00;;;;;;;17.82;100.00;97109.50;4878936;28;103971;-74
2023/09/30 02:21:08;;;;;;;17.53;9.50;;;;;;;17.79;100.00;97110.84;4874542;28;105150;-74
2023/09/30 02:23:35;;;;;;;18.00;9.10;;;;;;;17.80;100.00;97112.44;4875346;28;105438;-74
2023/09/30 02:26:03;;;;;;;21.57;10.20;;;;;;;17.76;100.00;97110.59;4875985;28;102022;-73
2023/09/30 02:28:32;;;;;;;16.37;9.07;;;;;;;17.82;100.00;97112.19;4874945;28;105294;-73
2023/09/30 02:31:00;;;;;;;19.47;9.23;;;;;;;17.81;100.00;97108.69;4875079;28;105090;-73
2023/09/30 02:33:27;;;;;;;18.27;9.80;;;;;;;17.86;100.00;97105.94;4875691;28;101993;-73
2023/09/30 02:35:54;;;;;;;20.73;10.00;;;;;;;17.88;100.00;97108.38;4875020;28;104970;-73
2023/09/30 02:38:22;;;;;;;17.07;8.93;;;;;;;17.87;100.00;97107.56;4874330;28;105928;-73
2023/09/30 02:40:51;;;;;;;16.97;9.33;;;;;;;17.87;100.00;97112.16;4879199;28;102148;-73
2023/09/30 02:43:18;;;;;;;17.03;9.10;;;;;;;17.88;100.00;97111.84;4875145;28;105764;-73
2023/09/30 02:45:45;;;;;;;15.63;8.47;;;;;;;17.86;100.00;97105.94;4891697;28;101903;-75
2023/09/30 02:48:13;;;;;;;15.73;8.57;;;;;;;17.85;100.00;97108.91;4875558;28;105713;-73
2023/09/30 02:50:44;;;;;;;15.73;8.83;;;;;;;17.80;100.00;97111.63;4875097;28;105159;-73
2023/09/30 02:53:12;;;;;;;16.10;9.07;;;;;;;17.78;100.00;97103.06;4892595;28;101909;-73
2023/09/30 02:55:39;;;;;;;19.47;9.07;;;;;;;17.77;100.00;97101.44;4891467;28;104925;-73
2023/09/30 02:58:07;;;;;;;20.03;10.07;;;;;;;17.75;100.00;97104.41;4874979;28;105245;-72
2023/09/30 03:00:34;;;;;;;17.53;9.83;;;;;;;17.65;100.00;97109.06;4893704;28;102067;-72
2023/09/30 03:03:03;;;;;;;17.13;9.63;;;;;;;17.57;100.00;97115.00;4874857;28;105867;-72
2023/09/30 03:05:33;;;;;;;18.17;9.33;;;;;;;17.60;100.00;97112.56;4875338;28;102002;-74
2023/09/30 03:08:00;;;;;;;17.63;9.13;;;;;;;17.65;100.00;97119.81;4875430;28;105343;-73
2023/09/30 03:10:27;;;;;;;15.83;8.70;;;;;;;17.63;100.00;97108.50;4874792;28;105499;-73
2023/09/30 03:12:54;;;;;;;14.03;8.13;;;;;;;17.64;100.00;97112.78;4875307;28;102009;-73
2023/09/30 03:15:22;;;;;;;18.73;9.40;;;;;;;17.58;100.00;97117.41;4875295;28;105040;-75
2023/09/30 03:17:49;;;;;;;18.40;9.40;;;;;;;17.47;100.00;97123.09;4874811;28;105415;-75
2023/09/30 03:20:19;;;;;;;16.53;8.97;;;;;;;17.50;100.00;97111.81;4890887;28;101961;-75
2023/09/30 03:22:48;;;;;;;17.93;9.90;;;;;;;17.53;100.00;97116.63;4878093;28;105740;-73
2023/09/30 03:25:17;;;;;;;18.33;9.57;;;;;;;17.52;100.00;97117.72;4875321;28;102013;-73
2023/09/30 03:27:44;;;;;;;15.97;9.33;;;;;;;17.48;100.00;97119.34;4875147;28;105702;-76
2023/09/30 03:30:12;;;;;;;20.27;9.87;;;;;;;17.51;100.00;97108.84;4874565;28;106309;-76
2023/09/30 03:32:39;;;;;;;19.07;10.43;;;;;;;17.51;100.00;97108.03;4875142;28;101995;-73
2023/09/30 03:35:07;;;;;;;18.60;9.77;;;;;;;17.43;100.00;97114.00;4874245;28;105197;-73
2023/09/30 03:37:35;;;;;;;17.97;9.27;;;;;;;17.43;100.00;97114.00;4874481;28;105498;-73
2023/09/30 03:40:13;;;;;;;14.80;8.80;;;;;;;17.42;100.00;97117.75;4875062;28;102078;-73
2023/09/30 03:42:42;;;;;;;16.83;9.37;;;;;;;17.38;100.00;97111.31;4875209;28;105361;-73
2023/09/30 03:45:09;;;;;;;18.53;9.13;;;;;;;17.24;100.00;97115.66;4877689;28;105405;-73
2023/09/30 03:47:37;;;;;;;18.97;10.33;;;;;;;17.18;100.00;97117.56;4877158;28;105435;-73
2023/09/30 03:50:05;;;;;;;18.07;9.83;;;;;;;17.22;100.00;97115.13;4876744;28;105425;-73
2023/09/30 03:52:33;;;;;;;15.30;8.90;;;;;;;17.25;100.00;97115.38;4878175;28;102022;-73
2023/09/30 03:55:03;;;;;;;17.33;10.00;;;;;;;17.29;100.00;97115.63;4878250;28;105658;-73
2023/09/30 03:57:33;;;;;;;18.93;9.90;;;;;;;17.31;100.00;97116.16;4876833;28;105691;-73
2023/09/30 04:00:00;;;;;;;17.63;9.90;;;;;;;17.29;100.00;97126.38;4877960;28;102184;-73
2023/09/30 04:02:27;;;;;;;21.10;10.57;;;;;;;17.12;100.00;97136.66;4878059;28;105080;-73
2023/09/30 04:04:55;;;;;;;17.60;9.90;;;;;;;17.12;100.00;97132.06;4876587;28;105999;-73
2023/09/30 04:07:27;;;;;;;19.20;9.67;;;;;;;17.11;100.00;97135.84;4881550;28;102389;-73
2023/09/30 04:09:55;;;;;;;19.53;9.40;;;;;;;17.13;100.00;97127.50;4877337;28;104251;-73
2023/09/30 04:12:23;;;;;;;18.97;10.13;;;;;;;17.10;100.00;97133.41;4877991;28;102199;-73
2023/09/30 04:14:51;;;;;;;18.43;9.50;;;;;;;17.13;100.00;97140.94;4894143;28;102919;-73
2023/09/30 04:17:18;;;;;;;17.80;9.57;;;;;;;17.07;100.00;97144.72;4877340;28;105563;-74
2023/09/30 04:19:45;;;;;;;19.00;9.83;;;;;;;17.01;100.00;97145.81;4877066;28;102542;-75
2023/09/30 04:22:12;;;;;;;18.33;9.70;;;;;;;16.98;100.00;97149.03;4877789;28;103588;-74
2023/09/30 04:24:39;;;;;;;18.87;9.93;;;;;;;16.93;100.00;97155.25;4893181;28;105252;-74
2023/09/30 04:27:07;;;;;;;17.40;10.07;;;;;;;16.96;100.00;97151.22;4877767;28;102057;-74
2023/09/30 04:29:34;;;;;;;17.20;10.40;;;;;;;16.92;100.00;97152.81;4879427;28;104813;-74
2023/09/30 04:32:02;;;;;;;16.27;10.07;;;;;;;16.96;100.00;97151.22;4892618;28;102003;-74
2023/09/30 04:34:30;;;;;;;20.47;10.17;;;;;;;16.95;100.00;97155.75;4876824;28;104942;-74
2023/09/30 04:36:57;;;;;;;19.03;10.43;;;;;;;16.96;100.00;97159.28;4876076;28;103112;-73
2023/09/30 04:39:24;;;;;;;19.40;10.33;;;;;;;16.91;100.00;97157.41;4876635;28;102004;-74
2023/09/30 04:41:51;;;;;;;19.07;10.33;;;;;;;16.93;100.00;97159.78;4876548;28;105633;-73
2023/09/30 04:44:18;;;;;;;19.13;10.23;;;;;;;16.92;100.00;97161.69;4876014;28;104336;-74
2023/09/30 04:46:46;;;;;;;17.43;10.17;;;;;;;16.88;100.00;97163.31;4876609;28;101935;-74
2023/09/30 04:49:15;;;;;;;18.53;9.87;;;;;;;16.89;100.00;97164.13;4876381;28;105635;-74
2023/09/30 04:51:42;;;;;;;19.13;10.70;;;;;;;16.94;100.00;97161.44;4880049;28;105775;-74
2023/09/30 04:54:10;;;;;;;18.37;10.87;;;;;;;16.90;100.00;97165.72;4876378;28;105592;-75
2023/09/30 04:56:38;;;;;;;21.20;10.60;;;;;;;16.94;100.00;97166.81;4891865;28;106046;-75
2023/09/30 04:59:05;;;;;;;19.20;10.50;;;;;;;16.86;100.00;97176.22;4875408;28;101940;-75
2023/09/30 05:01:32;;;;;;;18.53;9.90;;;;;;;16.84;100.00;97185.63;4876156;28;104298;-74
2023/09/30 05:03:59;;;;;;;17.97;9.70;;;;;;;16.80;100.00;97187.22;4876849;28;104146;-74
2023/09/30 05:06:27;;;;;;;20.60;10.27;;;;;;;16.84;100.00;97193.69;4877257;28;102067;-75
2023/09/30 05:08:55;;;;;;;17.20;10.07;;;;;;;16.87;100.00;97187.75;4891936;28;105029;-75
2023/09/30 05:11:22;;;;;;;18.00;10.00;;;;;;;16.81;100.00;97199.59;4878888;28;104152;-75
2023/09/30 05:13:49;;;;;;;17.83;9.77;;;;;;;16.82;100.00;97201.19;4876009;28;105309;-75
2023/09/30 05:16:16;;;;;;;19.13;9.60;;;;;;;16.74;100.00;97210.59;4876625;28;105346;-77
2023/09/30 05:18:43;;;;;;;16.10;10.07;;;;;;;16.80;100.00;97212.22;4876931;28;101979;-74
2023/09/30 05:21:10;;;;;;;16.17;9.10;;;;;;;16.87;100.00;97207.38;4875238;28;104427;-75
2023/09/30 05:23:38;;;;;;;17.67;10.30;;;;;;;16.91;100.00;97199.56;4876222;28;105510;-76
2023/09/30 05:26:05;;;;;;;16.23;9.80;;;;;;;16.93;100.00;97197.41;4875838;28;102146;-75
2023/09/30 05:28:34;;;;;;;20.00;10.10;;;;;;;16.86;100.00;97196.91;4876742;28;105096;-75
2023/09/30 05:31:02;;;;;;;19.07;9.80;;;;;;;16.96;100.00;97194.19;4875506;28;105749;-74
2023/09/30 05:33:30;;;;;;;19.47;9.50;;;;;;;17.00;100.00;97187.22;4880241;28;102033;-76
2023/09/30 05:35:57;;;;;;;18.90;10.13;;;;;;;17.05;100.00;97184.53;4876117;28;105479;-77
2023/09/30 05:38:24;;;;;;;16.23;9.03;;;;;;;17.06;100.00;97188.81;4875682;28;102337;-77
2023/09/30 05:40:54;;;;;;;17.53;9.83;;;;;;;17.01;100.00;97199.56;4876929;28;104803;-76
2023/09/30 05:43:21;;;;;;;18.63;9.90;;;;;;;16.91;100.00;97196.88;4876091;28;105682;-75
2023/09/30 05:45:54;;;;;;;18.13;10.17;;;;;;;16.97;100.00;97193.13;4876537;28;102051;-75
2023/09/30 05:48:21;;;;;;;15.77;9.50;;;;;;;16.99;100.00;97189.09;4875543;28;105436;-75
2023/09/30 05:50:48;;;;;;;16.97;9.40;;;;;;;16.98;100.00;97198.22;4876089;28;105948;-75
2023/09/30 05:53:15;;;;;;;20.43;10.10;;;;;;;17.00;100.00;97195.28;4876543;28;102009;-75
2023/09/30 05:55:43;;;;;;;16.43;9.20;;;;;;;16.99;100.00;97196.31;4878259;28;105386;-75
2023/09/30 05:58:13;;;;;;;18.40;9.80;;;;;;;17.00;100.00;97195.28;4876555;28;101890;-74
2023/09/30 06:00:41;;;;;;;21.03;9.80;;;;;;;17.03;100.00;97192.03;4876343;28;105136;-75
2023/09/30 06:03:10;;;;;;;19.63;10.20;;;;;;;17.02;100.00;97195.81;4875631;28;105782;-75
2023/09/30 06:05:40;;;;;;;17.50;9.47;;;;;;;17.03;100.00;97192.03;4875241;28;101928;-75
2023/09/30 06:08:10;;;;;;;19.53;10.67;;;;;;;16.92;100.00;97198.50;4876380;28;104960;-75
2023/09/30 06:10:38;;;;;;;17.70;9.80;;;;;;;16.82;100.00;97217.31;4874529;28;105720;-75
2023/09/30 06:13:05;;;;;;;19.00;9.93;;;;;;;16.84;100.00;97220.53;4876118;28;101983;-75
2023/09/30 06:15:33;;;;;;;15.70;9.13;;;;;;;16.94;100.00;97217.84;4876055;28;105302;-75
2023/09/30 06:18:01;;;;;;;21.77;9.50;;;;;;;17.04;100.00;97220.50;4894755;28;105560;-75
2023/09/30 06:20:30;;;;;;;18.63;9.50;;;;;;;17.12;100.00;97206.53;4875639;28;104049;-75
2023/09/30 06:22:57;;;;;;;17.37;8.87;;;;;;;17.22;100.00;97206.53;4892376;28;103289;-75
2023/09/30 06:25:25;;;;;;;16.30;9.10;;;;;;;17.25;100.00;97211.34;4891695;28;102141;-75
2023/09/30 06:27:52;;;;;;;18.03;9.27;;;;;;;17.32;100.00;97201.09;4876184;28;105038;-75
2023/09/30 06:30:20;;;;;;;18.43;9.50;;;;;;;17.36;100.00;97204.88;4875281;28;105626;-75
2023/09/30 06:32:49;;;;;;;16.87;9.60;;;;;;;17.44;100.00;97207.81;4891776;28;101937;-75
2023/09/30 06:35:16;;;;;;;16.00;8.33;;;;;;;17.47;100.00;97214.53;4876012;28;105396;-75
2023/09/30 06:37:45;;;;;;;16.30;8.87;;;;;;;17.45;100.00;97222.09;4875281;28;105808;-75
2023/09/30 06:40:13;;;;;;;15.97;9.40;;;;;;;17.44;100.00;97226.66;4879532;28;101827;-75
2023/09/30 06:42:40;;;;;;;15.70;9.07;;;;;;;17.45;100.00;97225.56;4874972;28;105461;-75
2023/09/30 06:45:09;;;;;;;15.77;9.50;;;;;;;17.49;100.00;97228.53;4875817;28;102011;-75
2023/09/30 06:47:37;;;;;;;16.30;9.53;;;;;;;17.49;100.00;97228.53;4875555;28;105599;-75
2023/09/30 06:50:09;;;;;;;15.43;8.97;;;;;;;17.58;100.00;97232.25;4875118;28;105646;-75
2023/09/30 06:52:38;;;;;;;16.30;9.40;;;;;;;17.66;100.00;97229.03;4875735;28;101959;-75
2023/09/30 06:55:06;;;;;;;18.33;9.90;;;;;;;17.71;100.00;97232.47;4891321;28;105328;-75
2023/09/30 06:57:34;;;;;;;16.33;9.83;;;;;;;17.78;100.00;97240.28;4874898;28;105034;-75
2023/09/30 07:00:04;;;;;;;15.53;8.87;;;;;;;17.84;100.00;97244.53;4875500;28;102036;-75
2023/09/30 07:02:31;;;;;;;16.50;9.23;;;;;;;17.91;100.00;97253.13;4878134;28;104950;-75
2023/09/30 07:04:58;;;;;;;15.73;9.07;;;;;;;17.94;100.00;97242.59;4892712;28;101929;-75
2023/09/30 07:07:26;;;;;;;17.73;9.37;;;;;;;18.02;100.00;97244.75;4875350;28;105112;-75
2023/09/30 07:09:53;;;;;;;19.93;9.30;;;;;;;18.13;100.00;97248.19;4874870;28;105522;-75
2023/09/30 07:12:20;;;;;;;15.83;9.53;;;;;;;18.19;100.00;97247.06;4875347;28;102058;-75
2023/09/30 07:14:47;;;;;;;15.00;8.60;;;;;;;18.29;100.00;97245.13;4875432;28;105271;-75
2023/09/30 07:17:14;;;;;;;19.67;9.57;;;;;;;18.36;100.00;97255.66;4892109;28;103056;-75
2023/09/30 07:19:41;;;;;;;18.33;10.03;;;;;;;18.41;100.00;97258.28;4891942;28;101985;-75
2023/09/30 07:22:08;;;;;;;18.00;9.73;;;;;;;18.41;100.00;97263.66;4878397;28;105383;-75
2023/09/30 07:24:36;;;;;;;20.63;11.10;;;;;;;18.33;100.00;97261.56;4878689;28;101979;-75
2023/09/30 07:27:03;;;;;;;22.23;11.10;;;;;;;18.20;100.00;97262.16;4877842;28;104975;-75
2023/09/30 07:29:30;;;;;;;19.90;10.27;;;;;;;18.18;100.00;97248.16;4873459;28;105989;-75
2023/09/30 07:31:57;;;;;;;20.27;10.40;;;;;;;18.17;100.00;97252.75;4876672;28;102808;-75
2023/09/30 07:34:24;;;;;;;19.33;10.87;;;;;;;18.23;100.00;97261.59;4877744;28;105183;-75
2023/09/30 07:36:51;;;;;;;18.57;10.13;;;;;;;18.25;100.00;97264.81;4876900;28;106017;-75
2023/09/30 07:39:18;;;;;;;20.33;10.50;;;;;;;18.34;100.00;97260.47;4909278;28;102020;-75
2023/09/30 07:41:46;;;;;;;19.03;10.80;;;;;;;18.45;100.00;97264.72;4877399;28;105697;-74
2023/09/30 07:44:13;;;;;;;20.40;11.07;;;;;;;18.38;100.00;97265.06;4912158;28;105303;-75
2023/09/30 07:46:40;;;;;;;18.53;10.60;;;;;;;18.46;100.00;97266.34;4877441;28;104395;-75
2023/09/30 07:49:09;;;;;;;17.53;10.40;;;;;;;18.64;100.00;97268.38;4894084;28;102854;-74
2023/09/30 07:51:36;;;;;;;20.97;10.23;;;;;;;18.77;100.00;97273.97;4877271;28;101938;-75
2023/09/30 07:54:04;;;;;;;18.93;10.10;;;;;;;18.42;100.00;97284.16;4909384;28;103695;-75
2023/09/30 07:56:31;;;;;;;19.80;10.23;;;;;;;18.44;100.00;97281.97;4876827;28;104462;-75
2023/09/30 07:58:59;;;;;;;19.40;9.97;;;;;;;18.24;100.00;97280.16;4877197;28;101962;-76
2023/09/30 08:01:26;;;;;;;17.30;9.67;;;;;;;18.51;100.00;97285.16;4909068;28;105133;-77
2023/09/30 08:03:58;;;;;;;17.87;9.90;;;;;;;18.56;100.00;97287.81;4877555;28;103038;-78
2023/09/30 08:06:25;;;;;;;19.20;10.27;;;;;;;18.46;100.00;97287.88;4881385;28;101851;-75
2023/09/30 08:08:52;;;;;;;17.40;10.40;;;;;;;18.43;100.00;97291.16;4876735;28;105794;-75
2023/09/30 08:11:20;;;;;;;18.10;9.50;;;;;;;18.66;100.00;97298.53;4876931;28;101985;-75
2023/09/30 08:13:48;;;;;;;20.67;10.57;;;;;;;18.61;100.00;97291.31;4877893;28;105195;-76
2023/09/30 08:16:16;;;;;;;22.00;10.60;;;;;;;18.54;100.00;97290.00;4908372;28;105898;-76
2023/09/30 08:18:43;;;;;;;21.37;10.27;;;;;;;18.73;100.00;97288.25;4908669;28;101979;-76
2023/09/30 08:21:11;;;;;;;16.00;8.93;;;;;;;18.68;100.00;97290.97;4876291;28;103993;-75
2023/09/30 08:23:38;;;;;;;19.07;10.10;;;;;;;18.52;100.00;97292.97;4877349;28;105444;-76
2023/09/30 08:26:05;;;;;;;18.97;10.27;;;;;;;18.42;100.00;97292.22;4908716;28;101976;-76
2023/09/30 08:28:32;;;;;;;15.13;8.40;;;;;;;18.47;100.00;97295.69;4911541;28;105538;-75
2023/09/30 08:31:04;;;;;;;18.10;9.73;;;;;;;18.55;100.00;97297.00;4877723;28;101960;-75
2023/09/30 08:33:33;;;;;;;19.97;9.83;;;;;;;18.79;100.00;97295.22;4876598;28;105321;-75
2023/09/30 08:36:06;;;;;;;20.40;9.30;;;;;;;18.63;100.00;97288.34;4894082;28;103264;-76
2023/09/30 08:38:34;;;;;;;18.10;9.43;;;;;;;18.55;100.00;97294.31;4877666;28;101876;-75
2023/09/30 08:41:04;;;;;;;16.20;8.13;;;;;;;18.64;100.00;97289.94;4877519;28;104995;-92
2023/09/30 08:43:32;;;;;;;15.23;8.47;;;;;;;18.61;100.00;97280.53;4876957;28;105775;-75
2023/09/30 08:45:59;;;;;;;16.13;8.10;;;;;;;18.91;100.00;97266.81;4877540;28;101914;-75
2023/09/30 08:48:27;;;;;;;16.10;8.23;;;;;;;19.01;100.00;97268.66;4909230;28;105475;-74
2023/09/30 08:50:56;;;;;;;16.77;9.00;;;;;;;18.97;100.00;97267.59;4897356;28;102895;-75
2023/09/30 08:53:24;;;;;;;15.73;8.50;;;;;;;18.98;100.00;97275.41;4877353;28;105183;-74
2023/09/30 08:55:55;;;;;;;15.43;8.47;;;;;;;18.87;100.00;97286.53;4876728;28;105287;-75
2023/09/30 08:58:25;;;;;;;16.50;8.60;;;;;;;18.85;100.00;97286.81;4877294;28;102146;-75
2023/09/30 09:00:52;;;;;;;16.47;8.47;;;;;;;19.10;100.00;97277.72;4909182;28;105029;-75
2023/09/30 09:03:19;;;;;;;16.80;8.20;;;;;;;19.17;100.00;97289.00;4876597;28;105332;-75
2023/09/30 09:05:46;;;;;;;14.17;7.40;;;;;;;18.98;100.00;97296.97;4877128;28;101859;-75
2023/09/30 09:08:15;;;;;;;12.87;7.00;;;;;;;18.72;100.00;97290.16;4908906;28;105448;-75
2023/09/30 09:10:57;;;;;;;14.03;7.10;;;;;;;18.93;100.00;97283.53;4876435;28;105448;-75
2023/09/30 09:13:25;;;;;;;18.20;8.43;;;;;;;18.93;100.00;97285.41;4897721;28;102026;-75
2023/09/30 09:16:06;;;;;;;12.93;7.70;;;;;;;18.85;100.00;97286.03;4876533;28;105919;-75
2023/09/30 09:18:35;;;;;;;14.07;8.00;;;;;;;18.72;100.00;97292.03;4908852;28;101867;-75
2023/09/30 09:21:12;;;;;;;15.83;8.13;;;;;;;18.77;100.00;97283.91;4876475;28;105857;-75
2023/09/30 09:23:45;;;;;;;16.40;8.27;;;;;;;18.87;100.00;97278.47;4908241;28;104504;-75
2023/09/30 09:26:13;;;;;;;15.00;8.57;;;;;;;19.11;100.00;97277.47;4908808;28;101986;-75
2023/09/30 09:28:41;;;;;;;14.73;8.23;;;;;;;19.29;100.00;97282.16;4876865;28;105290;-75
2023/09/30 09:31:21;;;;;;;13.23;7.67;;;;;;;19.43;100.00;97280.44;4876056;28;105183;-75
2023/09/30 09:33:48;;;;;;;15.30;7.93;;;;;;;19.20;100.00;97283.03;4880061;28;102092;-75
2023/09/30 09:36:16;;;;;;;14.67;8.17;;;;;;;19.08;100.00;97296.88;4876076;28;105542;-75
2023/09/30 09:38:50;;;;;;;14.67;7.67;;;;;;;18.96;100.00;97303.75;4908533;28;101919;-75
2023/09/30 09:41:18;;;;;;;14.33;7.73;;;;;;;19.08;100.00;97298.78;4876651;28;105731;-75
2023/09/30 09:43:45;;;;;;;14.50;7.33;;;;;;;19.00;100.00;97293.97;4876153;28;105346;-75
2023/09/30 09:46:13;;;;;;;14.23;7.60;;;;;;;19.06;100.00;97292.84;4876324;28;101925;-75
2023/09/30 09:48:41;;;;;;;13.27;7.47;;;;;;;19.02;100.00;97291.84;4876389;28;105556;-75
2023/09/30 09:51:12;;;;;;;16.70;8.07;;;;;;;19.32;100.00;97291.59;4907629;28;105834;-75
2023/09/30 09:53:41;;;;;;;13.60;7.07;;;;;;;19.62;100.00;97284.00;4908454;28;101820;-75
2023/09/30 09:56:11;;;;;;;11.90;7.10;;;;;;;19.82;100.00;97291.06;4911138;28;104974;-75
2023/09/30 09:58:42;;;;;;;14.90;8.13;;;;;;;19.93;100.00;97290.69;4908257;28;101970;-75
2023/09/30 10:01:11;;;;;;;14.63;7.43;;;;;;;20.02;100.00;97285.47;4876435;28;104448;-75
2023/09/30 10:03:39;;;;;;;20.87;8.27;;;;;;;20.02;100.00;97286.28;4875542;28;105957;-75
2023/09/30 10:06:08;;;;;;;15.13;7.73;;;;;;;19.82;100.00;97280.28;4876309;28;102097;-75
2023/09/30 10:08:41;;;;;;;15.70;8.63;;;;;;;19.92;100.00;97272.06;4876183;28;104849;-75
2023/09/30 10:11:10;;;;;;;13.77;7.73;;;;;;;20.04;100.00;97278.69;4875727;28;105554;-75
2023/09/30 10:14:06;;;;;;;20.03;9.67;;;;;;;19.78;100.00;97271.16;4876191;28;102089;-75
2023/09/30 10:16:50;;;;;;;20.80;9.50;;;;;;;20.02;100.00;97274.66;4853878;28;105388;-75
2023/09/30 10:19:19;;;;;;;24.53;12.33;;;;;;;20.02;100.00;97277.34;4878140;28;105202;-75
2023/09/30 10:22:24;;;;;;;22.77;12.27;;;;;;;19.94;100.00;97268.00;4875151;28;104884;-75
2023/09/30 10:24:57;;;;;;;22.50;11.20;;;;;;;19.69;100.00;97270.19;4906258;28;105324;-75
2023/09/30 10:27:34;;;;;;;21.47;11.30;;;;;;;19.55;100.00;97274.63;4874958;28;102035;-75
2023/09/30 10:30:13;;;;;;;19.80;10.10;;;;;;;19.69;100.00;97264.78;4875079;28;105318;-75
2023/09/30 10:33:15;;;;;;;20.20;10.13;;;;;;;20.04;100.00;97253.56;4874404;28;105855;-75
2023/09/30 10:35:49;;;;;;;19.53;9.60;;;;;;;19.89;100.00;97259.16;4906760;28;101940;-75
2023/09/30 10:38:41;;;;;;;22.23;10.83;;;;;;;19.71;100.00;97255.31;4907853;28;104995;-75
2023/09/30 10:41:09;;;;;;;19.33;9.63;;;;;;;19.99;100.00;97254.44;4874296;28;105006;-75
2023/09/30 10:43:39;;;;;;;20.90;11.07;;;;;;;19.63;100.00;97249.75;4910740;28;102086;-75
2023/09/30 10:46:35;;;;;;;17.77;9.37;;;;;;;20.03;100.00;97250.06;4905988;28;104966;-75
2023/09/30 10:49:32;;;;;;;19.17;10.00;;;;;;;20.76;100.00;97251.22;4907713;28;102100;-75
2023/09/30 10:52:00;;;;;;;19.30;10.13;;;;;;;20.72;100.00;97241.31;4874637;28;105663;-75
2023/09/30 10:54:29;;;;;;;18.60;9.83;;;;;;;20.86;100.00;97231.31;4874273;28;105516;-75
2023/09/30 10:56:58;;;;;;;18.03;9.63;;;;;;;20.88;100.00;97234.56;4875117;28;101948;-75
2023/09/30 10:59:30;;;;;;;19.03;10.27;;;;;;;21.13;100.00;97232.25;4907301;28;105046;-75
2023/09/30 11:01:57;;;;;;;19.47;10.57;;;;;;;21.43;100.00;97239.03;4906145;28;105424;-75
2023/09/30 11:04:27;;;;;;;16.67;9.27;;;;;;;21.00;100.00;97238.44;4874522;28;101971;-75
2023/09/30 11:06:54;;;;;;;19.17;9.67;;;;;;;20.75;100.00;97240.69;4878396;28;104135;-75
2023/09/30 11:09:22;;;;;;;17.67;9.77;;;;;;;20.80;100.00;97238.72;4875366;28;102002;-75
2023/09/30 11:11:50;;;;;;;17.30;9.73;;;;;;;20.34;100.00;97243.22;4892579;28;101796;-75
2023/09/30 11:14:21;;;;;;;19.37;10.03;;;;;;;20.78;100.00;97240.13;4891811;28;102873;-75